createdAt,value
2019-05-09T00:00:53.391Z,4.70
2019-05-09T00:03:24.100Z,5.10
2019-05-09T00:05:54.219Z,6.17
2019-05-09T00:08:23.199Z,7.10
2019-05-09T00:10:53.457Z,5.30
2019-05-09T00:13:23.737Z,7.00
2019-05-09T00:15:54.171Z,7.63
2019-05-09T00:18:23.280Z,5.80
2019-05-09T00:20:56.890Z,7.47
2019-05-09T00:23:25.472Z,8.20
2019-05-09T00:25:54.028Z,5.97
2019-05-09T00:28:24.475Z,7.20
2019-05-09T00:30:54.686Z,6.30
2019-05-09T00:33:27.621Z,7.10
2019-05-09T00:35:56.205Z,6.57
2019-05-09T00:38:26.484Z,7.53
2019-05-09T00:40:58.749Z,7.67
2019-05-09T00:43:25.325Z,5.97
2019-05-09T00:46:03.809Z,6.97
2019-05-09T00:48:35.862Z,7.73
2019-05-09T00:51:04.423Z,8.07
2019-05-09T00:53:33.893Z,8.73
2019-05-09T00:56:04.258Z,8.63
2019-05-09T00:58:33.549Z,8.47
2019-05-09T01:01:04.366Z,7.17
2019-05-09T01:03:33.938Z,7.83
2019-05-09T01:06:04.028Z,7.40
2019-05-09T01:08:33.711Z,7.57
2019-05-09T01:11:11.798Z,9.67
2019-05-09T01:13:34.190Z,8.63
2019-05-09T01:16:04.481Z,7.63
2019-05-09T01:18:34.909Z,7.50
2019-05-09T01:21:04.223Z,8.10
2019-05-09T01:23:34.288Z,8.70
2019-05-09T01:26:04.210Z,10.10
2019-05-09T01:28:33.935Z,9.23
2019-05-09T01:31:04.149Z,8.40
2019-05-09T01:33:34.726Z,8.87
2019-05-09T01:36:03.874Z,7.47
2019-05-09T01:38:33.932Z,9.47
2019-05-09T01:41:04.071Z,7.97
2019-05-09T01:43:33.724Z,7.53
2019-05-09T01:46:03.700Z,10.07
2019-05-09T01:48:34.138Z,9.53
2019-05-09T01:51:03.450Z,7.83
2019-05-09T01:53:34.434Z,9.70
2019-05-09T01:56:03.857Z,8.57
2019-05-09T01:58:34.581Z,9.50
2019-05-09T02:01:06.525Z,9.53
2019-05-09T02:03:35.151Z,10.00
2019-05-09T02:06:04.775Z,9.73
2019-05-09T02:08:34.394Z,12.10
2019-05-09T02:11:03.945Z,9.87
2019-05-09T02:13:33.839Z,8.93
2019-05-09T02:16:07.240Z,9.70
2019-05-09T02:18:37.518Z,7.23
2019-05-09T02:21:06.103Z,10.07
2019-05-09T02:23:34.693Z,10.07
2019-05-09T02:26:03.962Z,10.60
2019-05-09T02:28:34.151Z,8.73
2019-05-09T02:31:05.243Z,9.77
2019-05-09T02:33:34.721Z,9.67
2019-05-09T02:36:03.446Z,11.57
2019-05-09T02:38:32.000Z,11.30
2019-05-09T02:41:01.032Z,9.00
2019-05-09T02:43:29.593Z,11.57
2019-05-09T02:45:59.913Z,9.37
2019-05-09T02:48:28.984Z,10.93
2019-05-09T02:51:00.131Z,11.10
2019-05-09T02:53:28.913Z,11.10
2019-05-09T02:55:58.661Z,9.83
2019-05-09T02:58:29.116Z,11.33
2019-05-09T03:00:59.836Z,11.50
2019-05-09T03:03:30.189Z,11.20
2019-05-09T03:05:59.691Z,10.83
2019-05-09T03:08:29.588Z,11.50
2019-05-09T03:10:59.355Z,12.30
2019-05-09T03:13:29.071Z,15.40
2019-05-09T03:16:00.362Z,13.00
2019-05-09T03:18:28.990Z,11.30
2019-05-09T03:21:02.026Z,11.47
2019-05-09T03:23:30.594Z,14.50
2019-05-09T03:25:59.275Z,12.30
2019-05-09T03:28:29.831Z,11.73
2019-05-09T03:31:00.043Z,13.60
2019-05-09T03:33:30.811Z,12.33
2019-05-09T03:35:59.037Z,11.27
2019-05-09T03:38:28.414Z,14.13
2019-05-09T03:40:58.015Z,13.03
2019-05-09T03:43:27.516Z,13.03
2019-05-09T03:46:01.383Z,12.70
2019-05-09T03:48:37.496Z,11.83
2019-05-09T03:51:08.090Z,12.87
2019-05-09T03:53:37.992Z,12.13
2019-05-09T03:56:08.748Z,12.00
2019-05-09T03:58:38.637Z,13.47
2019-05-09T04:01:10.350Z,15.87
2019-05-09T04:03:37.940Z,13.03
2019-05-09T04:06:08.249Z,12.80
2019-05-09T04:08:37.648Z,12.93
2019-05-09T04:11:08.585Z,13.23
2019-05-09T04:13:38.595Z,13.97
2019-05-09T04:16:07.591Z,13.63
2019-05-09T04:18:37.708Z,16.40
2019-05-09T04:21:08.386Z,13.77
2019-05-09T04:23:37.910Z,14.67
2019-05-09T04:26:27.664Z,12.30
2019-05-09T04:28:57.817Z,13.90
2019-05-09T04:31:28.049Z,12.93
2019-05-09T04:33:57.442Z,12.13
2019-05-09T04:36:41.159Z,13.83
2019-05-09T04:39:20.955Z,14.43
2019-05-09T04:41:44.959Z,13.87
2019-05-09T04:44:19.213Z,12.50
2019-05-09T04:46:45.462Z,12.97
2019-05-09T04:49:14.018Z,14.20
2019-05-09T04:51:42.614Z,14.30
2019-05-09T04:54:11.176Z,14.73
2019-05-09T04:56:41.360Z,12.93
2019-05-09T04:59:09.955Z,13.20
2019-05-09T05:01:43.136Z,12.33
2019-05-09T05:04:11.774Z,12.03
2019-05-09T05:06:40.632Z,14.67
2019-05-09T05:09:10.213Z,12.83
2019-05-09T05:11:38.755Z,14.20
2019-05-09T05:14:09.420Z,16.63
2019-05-09T05:16:39.313Z,13.27
2019-05-09T05:19:08.364Z,15.17
2019-05-09T05:21:37.774Z,13.27
2019-05-09T05:24:08.538Z,12.87
2019-05-09T05:26:38.051Z,12.57
2019-05-09T05:29:08.423Z,11.47
2019-05-09T05:31:38.810Z,14.00
2019-05-09T05:34:18.357Z,12.33
2019-05-09T05:36:47.692Z,13.13
2019-05-09T05:39:17.879Z,13.27
2019-05-09T05:41:48.397Z,13.30
2019-05-09T05:44:17.780Z,11.73
2019-05-09T05:46:54.199Z,15.33
2019-05-09T05:49:22.778Z,15.37
2019-05-09T05:51:51.315Z,14.73
2019-05-09T05:54:21.841Z,12.73
2019-05-09T05:56:50.442Z,15.70
2019-05-09T05:59:19.466Z,13.20
2019-05-09T06:02:21.375Z,12.43
2019-05-09T06:10:50.853Z,13.70
2019-05-09T06:14:18.321Z,13.33
2019-05-09T06:21:18.931Z,13.90
2019-05-09T06:30:50.353Z,14.87
2019-05-09T06:48:53.176Z,11.27
2019-05-09T06:51:21.726Z,14.17
2019-05-09T06:53:50.288Z,15.10
2019-05-09T06:56:18.851Z,16.13
2019-05-09T06:58:50.338Z,12.70
2019-05-09T07:01:23.349Z,13.27
2019-05-09T07:03:59.354Z,13.03
2019-05-09T07:06:48.291Z,17.30
2019-05-09T07:09:18.859Z,12.63
2019-05-09T07:11:48.590Z,13.63
2019-05-09T07:14:29.002Z,13.33
2019-05-09T07:16:52.325Z,12.03
2019-05-09T07:19:20.879Z,12.93
2019-05-09T07:22:02.992Z,12.37
2019-05-09T07:24:33.255Z,13.97
2019-05-09T07:27:01.790Z,15.47
2019-05-09T07:29:31.995Z,14.27
2019-05-09T07:32:02.188Z,15.10
2019-05-09T07:34:32.414Z,13.53
2019-05-09T07:37:00.966Z,13.53
2019-05-09T07:39:29.561Z,13.17
2019-05-09T07:41:58.517Z,13.37
2019-05-09T07:44:33.187Z,11.47
2019-05-09T07:47:01.878Z,13.00
2019-05-09T07:49:30.919Z,13.00
2019-05-09T07:52:06.129Z,14.20
2019-05-09T07:54:29.739Z,14.97
2019-05-09T07:56:58.314Z,13.23
2019-05-09T07:59:27.564Z,13.60
2019-05-09T08:01:58.161Z,13.77
2019-05-09T08:04:28.598Z,11.77
2019-05-09T08:06:57.715Z,14.43
2019-05-09T08:09:28.075Z,16.20
2019-05-09T08:11:58.748Z,15.00
2019-05-09T08:14:28.097Z,14.63
2019-05-09T08:16:58.068Z,12.90
2019-05-09T08:19:27.561Z,13.13
2019-05-09T08:21:57.591Z,15.77
2019-05-09T08:24:27.846Z,11.73
2019-05-09T08:26:58.021Z,11.23
2019-05-09T08:29:28.235Z,14.10
2019-05-09T08:31:58.229Z,11.93
2019-05-09T08:34:28.460Z,13.60
2019-05-09T08:36:58.171Z,12.63
2019-05-09T08:39:27.715Z,14.67
2019-05-09T08:41:58.963Z,11.97
2019-05-09T08:44:30.406Z,13.30
2019-05-09T08:46:57.459Z,13.93
2019-05-09T08:49:28.653Z,12.93
2019-05-09T08:52:10.089Z,12.80
2019-05-09T08:54:31.180Z,13.53
2019-05-09T08:56:59.800Z,13.07
2019-05-09T08:59:28.345Z,12.60
2019-05-09T09:02:12.327Z,17.93
2019-05-09T09:04:29.393Z,14.30
2019-05-09T09:06:57.770Z,11.03
2019-05-09T09:09:28.606Z,13.60
2019-05-09T09:11:58.345Z,11.80
2019-05-09T09:14:28.024Z,11.57
2019-05-09T09:16:57.730Z,14.07
2019-05-09T09:19:28.062Z,10.70
2019-05-09T09:22:00.106Z,14.10
2019-05-09T09:24:28.318Z,14.43
2019-05-09T09:26:57.442Z,12.97
2019-05-09T09:29:28.349Z,14.27
2019-05-09T09:31:57.620Z,12.43
2019-05-09T09:34:27.769Z,13.47
2019-05-09T09:37:02.990Z,11.40
2019-05-09T09:39:27.541Z,13.23
2019-05-09T09:41:58.701Z,13.23
2019-05-09T09:44:28.785Z,13.67
2019-05-09T09:46:58.106Z,14.23
2019-05-09T09:49:29.325Z,13.47
2019-05-09T09:51:58.299Z,13.63
2019-05-09T09:54:28.120Z,13.30
2019-05-09T09:56:58.560Z,14.27
2019-05-09T09:59:28.930Z,12.27
2019-05-09T10:01:59.191Z,13.40
2019-05-09T10:04:28.422Z,12.17
2019-05-09T10:06:58.345Z,12.03
2019-05-09T10:09:27.228Z,14.47
2019-05-09T10:11:58.194Z,12.80
2019-05-09T10:14:28.424Z,13.60
2019-05-09T10:17:04.940Z,12.67
2019-05-09T10:19:51.459Z,14.53
2019-05-09T10:22:24.548Z,15.63
2019-05-09T10:24:51.904Z,13.73
2019-05-09T10:27:20.460Z,13.33
2019-05-09T10:29:49.029Z,14.33
2019-05-09T10:32:18.425Z,12.43
2019-05-09T10:34:48.877Z,14.60
2019-05-09T10:37:18.546Z,14.03
2019-05-09T10:39:49.095Z,15.03
2019-05-09T10:42:31.211Z,12.03
2019-05-09T10:45:18.111Z,14.90
2019-05-09T10:47:48.298Z,13.40
2019-05-09T10:50:18.413Z,14.13
2019-05-09T10:52:48.169Z,13.10
2019-05-09T10:55:17.866Z,14.30
2019-05-09T10:57:52.128Z,13.27
2019-05-09T11:00:18.453Z,12.90
2019-05-09T11:02:48.341Z,12.90
2019-05-09T11:05:18.454Z,13.47
2019-05-09T11:07:49.364Z,12.40
2019-05-09T11:10:25.929Z,12.07
2019-05-09T11:12:47.915Z,12.90
2019-05-09T11:15:17.753Z,11.23
2019-05-09T11:17:47.474Z,13.17
2019-05-09T11:20:19.088Z,13.33
2019-05-09T11:22:46.670Z,11.67
2019-05-09T11:25:15.298Z,12.40
2019-05-09T11:27:43.850Z,11.13
2019-05-09T11:30:13.254Z,12.20
2019-05-09T11:32:41.802Z,11.60
2019-05-09T11:35:10.690Z,11.53
2019-05-09T11:37:39.270Z,11.93
2019-05-09T11:40:08.355Z,10.40
2019-05-09T11:42:38.133Z,9.20
2019-05-09T11:45:08.205Z,11.80
2019-05-09T11:47:45.472Z,10.13
2019-05-09T11:50:08.849Z,9.93
2019-05-09T11:52:38.412Z,9.60
2019-05-09T11:55:27.228Z,9.67
2019-05-09T11:57:38.627Z,8.23
2019-05-09T12:00:09.482Z,9.33
2019-05-09T12:02:38.649Z,8.07
2019-05-09T12:05:08.766Z,9.47
2019-05-09T12:07:38.144Z,9.40
2019-05-09T12:10:10.440Z,8.87
2019-05-09T12:12:39.186Z,8.00
2019-05-09T12:15:09.053Z,8.63
2019-05-09T12:17:50.942Z,8.13
2019-05-09T12:20:13.074Z,7.17
2019-05-09T12:22:39.025Z,8.77
2019-05-09T12:25:08.660Z,7.60
2019-05-09T12:27:37.583Z,8.40
2019-05-09T12:30:08.491Z,7.97
2019-05-09T12:32:38.534Z,8.00
2019-05-09T12:35:08.894Z,7.53
2019-05-09T12:37:37.871Z,7.43
2019-05-09T12:40:08.315Z,7.10
2019-05-09T12:42:39.270Z,8.03
2019-05-09T12:45:09.115Z,7.27
2019-05-09T12:47:39.709Z,8.77
2019-05-09T12:50:08.790Z,7.63
2019-05-09T12:52:39.268Z,7.87
2019-05-09T12:55:08.659Z,8.33
2019-05-09T12:57:38.619Z,7.57
2019-05-09T13:00:10.852Z,7.13
2019-05-09T13:02:39.430Z,6.73
2019-05-09T13:05:08.352Z,7.70
2019-05-09T13:07:40.068Z,8.07
2019-05-09T13:10:08.969Z,7.10
2019-05-09T13:12:38.839Z,8.50
2019-05-09T13:15:08.931Z,8.30
2019-05-09T13:17:43.250Z,7.77
2019-05-09T13:20:14.088Z,8.83
2019-05-09T13:22:43.058Z,9.27
2019-05-09T13:25:11.751Z,7.60
2019-05-09T13:27:40.297Z,7.13
2019-05-09T13:30:10.994Z,7.70
2019-05-09T13:32:39.614Z,7.90
2019-05-09T13:35:08.471Z,7.10
2019-05-09T13:37:38.216Z,6.87
2019-05-09T13:40:08.581Z,8.37
2019-05-09T13:42:39.523Z,7.30
2019-05-09T13:45:08.487Z,7.47
2019-05-09T13:47:38.037Z,7.50
2019-05-09T13:50:08.826Z,7.53
2019-05-09T13:52:38.678Z,8.70
2019-05-09T13:55:08.832Z,7.80
2019-05-09T13:57:37.707Z,7.60
2019-05-09T14:00:08.796Z,7.80
2019-05-09T14:02:38.346Z,6.80
2019-05-09T14:05:09.190Z,7.20
2019-05-09T14:07:37.962Z,7.67
2019-05-09T14:10:10.224Z,7.73
2019-05-09T14:12:38.657Z,7.90
2019-05-09T14:15:08.586Z,6.70
2019-05-09T14:17:48.214Z,7.90
2019-05-09T14:20:08.875Z,8.40
2019-05-09T14:22:38.591Z,7.20
2019-05-09T14:25:11.261Z,7.03
2019-05-09T14:27:37.743Z,6.93
2019-05-09T14:30:08.070Z,6.60
2019-05-09T14:32:39.800Z,6.37
2019-05-09T14:35:08.524Z,7.53
2019-05-09T14:37:38.885Z,6.93
2019-05-09T14:40:10.074Z,6.73
2019-05-09T14:42:39.504Z,7.23
2019-05-09T14:45:08.511Z,7.83
2019-05-09T14:47:41.963Z,6.83
2019-05-09T14:50:09.958Z,5.93
2019-05-09T14:52:58.405Z,7.10
2019-05-09T14:55:28.617Z,6.60
2019-05-09T14:57:57.923Z,6.67
2019-05-09T15:00:26.776Z,6.53
2019-05-09T15:02:57.886Z,6.97
2019-05-09T15:05:27.751Z,6.60
2019-05-09T15:07:58.970Z,6.77
2019-05-09T15:10:26.273Z,6.40
2019-05-09T15:12:55.047Z,6.63
2019-05-09T15:15:23.723Z,6.87
2019-05-09T15:17:52.274Z,6.43
2019-05-09T15:20:20.834Z,6.20
2019-05-09T15:22:49.397Z,6.93
2019-05-09T15:25:19.338Z,7.03
2019-05-09T15:27:48.154Z,7.63
2019-05-09T15:30:18.705Z,7.17
2019-05-09T15:32:47.576Z,6.73
2019-05-09T15:35:18.322Z,6.77
2019-05-09T15:37:48.061Z,6.60
2019-05-09T15:40:17.800Z,7.40
2019-05-09T15:42:47.890Z,7.73
2019-05-09T15:45:18.248Z,7.60
2019-05-09T15:47:48.252Z,6.47
2019-05-09T15:50:22.857Z,6.90
2019-05-09T15:52:48.123Z,6.97
2019-05-09T15:55:18.732Z,7.67
2019-05-09T15:57:48.567Z,6.97
2019-05-09T16:00:19.094Z,7.43
2019-05-09T16:02:48.529Z,8.13
2019-05-09T16:05:18.138Z,8.00
2019-05-09T16:07:49.913Z,8.73
2019-05-09T16:10:18.642Z,7.47
2019-05-09T16:12:48.619Z,8.83
2019-05-09T16:15:18.455Z,8.77
2019-05-09T16:17:50.424Z,7.90
2019-05-09T16:20:36.029Z,7.80
2019-05-09T16:22:50.103Z,7.80
2019-05-09T16:25:19.043Z,7.47
2019-05-09T16:27:48.587Z,8.03
2019-05-09T16:30:17.611Z,7.63
2019-05-09T16:32:48.030Z,8.10
2019-05-09T16:35:18.212Z,7.10
2019-05-09T16:38:00.799Z,7.43
2019-05-09T16:40:17.899Z,7.57
2019-05-09T16:42:47.529Z,6.73
2019-05-09T16:45:21.261Z,7.77
2019-05-09T16:47:51.906Z,7.57
2019-05-09T16:50:21.471Z,7.40
2019-05-09T16:52:50.038Z,6.80
2019-05-09T16:55:30.965Z,6.90
2019-05-09T16:58:00.651Z,7.63
2019-05-09T17:00:32.396Z,7.20
2019-05-09T17:03:00.962Z,7.00
2019-05-09T17:05:29.746Z,7.40
2019-05-09T17:07:58.864Z,6.90
2019-05-09T17:10:27.443Z,7.60
2019-05-09T17:13:00.039Z,7.20
2019-05-09T17:15:29.874Z,6.70
2019-05-09T17:17:58.605Z,8.53
2019-05-09T17:20:35.125Z,6.10
2019-05-09T17:23:13.461Z,5.87
2019-05-09T17:25:38.497Z,6.70
2019-05-09T17:28:07.354Z,5.60
2019-05-09T17:30:38.376Z,5.80
2019-05-09T17:33:07.940Z,6.30
2019-05-09T17:35:38.687Z,5.90
2019-05-09T17:38:08.630Z,7.57
2019-05-09T17:40:38.991Z,6.10
2019-05-09T17:43:08.275Z,8.03
2019-05-09T17:45:49.194Z,7.37
2019-05-09T17:48:20.261Z,6.47
2019-05-09T17:50:53.481Z,6.40
2019-05-09T17:53:22.094Z,6.70
2019-05-09T17:55:50.646Z,7.57
2019-05-09T17:58:29.261Z,6.83
2019-05-09T18:00:49.960Z,7.80
2019-05-09T18:03:19.306Z,7.20
2019-05-09T18:05:49.368Z,6.50
2019-05-09T18:08:23.372Z,6.83
2019-05-09T18:10:58.363Z,7.00
2019-05-09T18:13:30.444Z,8.00
2019-05-09T18:15:58.040Z,7.50
2019-05-09T18:18:28.389Z,6.63
2019-05-09T18:20:58.089Z,7.83
2019-05-09T18:23:28.327Z,7.73
2019-05-09T18:25:58.558Z,7.10
2019-05-09T18:28:29.311Z,9.50
2019-05-09T18:30:58.555Z,7.33
2019-05-09T18:33:44.845Z,6.83
2019-05-09T18:36:13.601Z,7.40
2019-05-09T18:38:44.741Z,7.77
2019-05-09T18:41:18.701Z,7.70
2019-05-09T18:43:51.989Z,7.70
2019-05-09T18:46:21.725Z,7.70
2019-05-09T18:48:50.842Z,9.20
2019-05-09T18:51:19.413Z,8.80
2019-05-09T18:53:47.989Z,8.83
2019-05-09T18:56:23.363Z,8.33
2019-05-09T18:58:53.447Z,8.93
2019-05-09T19:01:22.042Z,8.60
2019-05-09T19:03:50.654Z,9.43
2019-05-09T19:06:19.684Z,9.20
2019-05-09T19:08:48.823Z,8.90
2019-05-09T19:11:17.655Z,10.37
2019-05-09T19:13:46.291Z,9.60
2019-05-09T19:16:16.463Z,9.73
2019-05-09T19:19:50.034Z,9.57
2019-05-09T19:22:22.489Z,10.07
2019-05-09T19:24:48.781Z,9.17
2019-05-09T19:27:17.351Z,10.20
2019-05-09T19:29:46.496Z,11.30
2019-05-09T19:32:16.593Z,10.77
2019-05-09T19:34:45.211Z,11.60
2019-05-09T19:37:13.810Z,11.17
2019-05-09T19:39:52.548Z,11.27
2019-05-09T19:42:24.066Z,11.83
2019-05-09T19:44:56.676Z,11.47
2019-05-09T19:47:31.849Z,10.93
2019-05-09T19:50:05.005Z,12.60
2019-05-09T19:52:38.186Z,12.77
2019-05-09T19:55:09.255Z,11.30
2019-05-09T19:57:44.609Z,10.87
2019-05-09T20:00:35.703Z,11.60
2019-05-09T20:03:04.833Z,12.93
2019-05-09T20:05:33.355Z,11.00
2019-05-09T20:08:02.390Z,12.10
2019-05-09T20:10:48.558Z,11.40
2019-05-09T20:15:26.857Z,11.87
2019-05-09T20:19:56.353Z,11.10
2019-05-09T20:22:25.044Z,12.10
2019-05-09T20:24:53.642Z,11.80
2019-05-09T20:27:22.236Z,12.77
2019-05-09T20:29:50.867Z,14.33
2019-05-09T20:32:19.877Z,13.30
2019-05-09T20:34:48.444Z,11.87
2019-05-09T20:37:17.006Z,12.50
2019-05-09T20:39:45.771Z,11.17
2019-05-09T20:42:14.503Z,11.43
2019-05-09T20:44:43.499Z,10.83
2019-05-09T20:47:12.243Z,11.67
2019-05-09T20:49:40.978Z,10.00
2019-05-09T20:52:09.944Z,11.13
2019-05-09T20:54:38.662Z,10.20
2019-05-09T20:57:07.395Z,11.80
2019-05-09T20:59:36.176Z,10.97
2019-05-09T21:02:05.043Z,9.80
2019-05-09T21:04:33.786Z,10.07
2019-05-09T21:07:02.613Z,9.93
2019-05-09T21:09:31.343Z,10.20
2019-05-09T21:12:00.089Z,10.63
2019-05-09T21:14:29.343Z,10.40
2019-05-09T21:16:58.109Z,10.60
2019-05-09T21:19:31.238Z,13.37
2019-05-09T21:21:59.988Z,12.03
2019-05-09T21:24:28.793Z,9.97
2019-05-09T21:26:57.495Z,10.67
2019-05-09T21:29:26.881Z,11.67
2019-05-09T21:31:55.674Z,10.20
2019-05-09T21:34:24.398Z,11.53
2019-05-09T21:36:53.017Z,10.53
2019-05-09T21:39:23.102Z,10.90
2019-05-09T21:41:51.674Z,11.67
2019-05-09T21:44:20.309Z,10.60
2019-05-09T21:46:48.858Z,9.90
2019-05-09T21:49:17.426Z,11.97
2019-05-09T21:51:45.996Z,9.37
2019-05-09T21:54:14.558Z,9.77
2019-05-09T21:56:43.123Z,10.33
2019-05-09T21:59:11.752Z,11.43
2019-05-09T22:01:41.513Z,9.83
2019-05-09T22:04:10.050Z,11.10
2019-05-09T22:06:38.546Z,10.90
2019-05-09T22:09:09.775Z,10.60
2019-05-09T22:11:39.195Z,10.50
2019-05-09T22:14:07.753Z,10.73
2019-05-09T22:16:36.367Z,10.77
2019-05-09T22:19:05.070Z,11.37
2019-05-09T22:21:33.695Z,10.20
2019-05-09T22:24:02.329Z,11.73
2019-05-09T22:26:30.907Z,10.73
2019-05-09T22:28:59.454Z,12.17
2019-05-09T22:31:28.053Z,12.03
2019-05-09T22:33:56.667Z,12.63
2019-05-09T22:36:25.293Z,14.33
2019-05-09T22:38:53.847Z,12.57
2019-05-09T22:41:22.410Z,12.87
2019-05-09T22:43:50.958Z,12.27
2019-05-09T22:46:19.595Z,12.13
2019-05-09T22:48:48.163Z,10.63
2019-05-09T22:51:16.774Z,12.97
2019-05-09T22:53:45.332Z,13.53
2019-05-09T22:56:13.968Z,12.03
2019-05-09T22:58:42.516Z,12.50
2019-05-09T23:01:11.071Z,12.67
2019-05-09T23:03:39.909Z,12.67
2019-05-09T23:06:08.452Z,13.40
2019-05-09T23:08:37.067Z,12.37
2019-05-09T23:11:05.665Z,12.20
2019-05-09T23:13:35.846Z,12.77
2019-05-09T23:16:04.538Z,11.93
2019-05-09T23:18:33.107Z,13.33
2019-05-09T23:21:01.675Z,11.57
2019-05-09T23:23:37.604Z,12.77
2019-05-09T23:26:06.277Z,12.83
2019-05-09T23:28:34.907Z,12.13
2019-05-09T23:31:05.086Z,11.83
2019-05-09T23:33:35.274Z,12.33
2019-05-09T23:36:03.829Z,12.03
2019-05-09T23:38:32.383Z,12.70
2019-05-09T23:41:00.971Z,12.80
2019-05-09T23:43:29.528Z,12.90
2019-05-09T23:45:58.091Z,12.73
2019-05-09T23:48:27.252Z,13.93
2019-05-09T23:50:55.809Z,13.87
2019-05-09T23:53:31.754Z,13.90
2019-05-09T23:56:18.010Z,13.90
2019-05-09T23:59:04.256Z,15.17
